VOS Chablis — 9V3239 — position and weather

sailwx.info

Track history (hours):
 
Tides and Currents Weather Stations Pressure Air Temp Water Temp Dewpoint Dewpoint Depression Visibility Wind Speed Wind Dir Waves Ship Positions

VOS Chablis

Last reported at 2018-Jan-28 13:49 UTC. Time now 2018-Jul-17 07:39 UTC.
Position N 35°54' E 014°31'.
Warning: this ship's position is months out of date.

Length 65 m; draft 4.7 m.

Type: Ship. MMSI: 565958000.

Date/timePositionNaut miles runAvg speedWind from/ knotsBaromVisibWave heightAir tempDewpointWater temp
2018-Jan-28 13:49N 35°54' E 014°31'2 7.9
2018-Jan-28 13:30N 35°55' E 014°34'5 9.5
2018-Jan-28 13:00N 35°55' E 014°40'5 9.5
2018-Jan-28 12:30N 35°55' E 014°46'452 9.6
2018-Jan-26 13:12N 35°54' E 024°04'4 6.5
2018-Jan-26 12:37N 35°51' E 024°06'5 6.7
2018-Jan-26 11:56N 35°47' E 024°08'  
2018-Jan-22 12:27N 35°29' E 024°10'6 4.8
2018-Jan-22 11:17N 35°30' E 024°17'1 3.5
2018-Jan-22 10:54N 35°29' E 024°19'1 2.4
2018-Jan-22 10:30N 35°29' E 024°20'3 5.9
2018-Jan-22 10:00N 35°31' E 024°17'36 1.4
2018-Jan-21 08:02N 35°35' E 025°01'0 9.2
2018-Jan-21 08:00N 35°35' E 025°02'5 9.3
2018-Jan-21 07:29N 35°34' E 025°08'4 9.0
2018-Jan-21 07:00N 35°34' E 025°13'4 8.8
2018-Jan-21 06:30N 35°33' E 025°18'4 8.7
2018-Jan-21 06:00N 35°32' E 025°23'4 8.7
2018-Jan-21 05:30N 35°32' E 025°29'6 9.0
2018-Jan-21 04:52N 35°32' E 025°36'3 8.9
2018-Jan-21 04:30N 35°31' E 025°40'  
Track history (hours):
 
Tides and Currents Weather Stations Pressure Air Temp Water Temp Dewpoint Dewpoint Depression Visibility Wind Speed Wind Dir Waves Ship Positions

VOS Chablis

Last reported at 2018-Jan-28 13:49 UTC. Time now 2018-Jul-17 07:39 UTC.
Position N 35°54' E 014°31'.
Warning: this ship's position is months out of date.

Length 65 m; draft 4.7 m.

Type: Ship. MMSI: 565958000.

Date/timePositionNaut miles runAvg speedWind from/ knotsBaromVisibWave heightAir tempDewpointWater temp
2018-Jan-28 13:49N 35°54' E 014°31'2 7.9
2018-Jan-28 13:30N 35°55' E 014°34'5 9.5
2018-Jan-28 13:00N 35°55' E 014°40'5 9.5
2018-Jan-28 12:30N 35°55' E 014°46'452 9.6
2018-Jan-26 13:12N 35°54' E 024°04'4 6.5
2018-Jan-26 12:37N 35°51' E 024°06'5 6.7
2018-Jan-26 11:56N 35°47' E 024°08'  
2018-Jan-22 12:27N 35°29' E 024°10'6 4.8
2018-Jan-22 11:17N 35°30' E 024°17'1 3.5
2018-Jan-22 10:54N 35°29' E 024°19'1 2.4
2018-Jan-22 10:30N 35°29' E 024°20'3 5.9
2018-Jan-22 10:00N 35°31' E 024°17'36 1.4
2018-Jan-21 08:02N 35°35' E 025°01'0 9.2
2018-Jan-21 08:00N 35°35' E 025°02'5 9.3
2018-Jan-21 07:29N 35°34' E 025°08'4 9.0
2018-Jan-21 07:00N 35°34' E 025°13'4 8.8
2018-Jan-21 06:30N 35°33' E 025°18'4 8.7
2018-Jan-21 06:00N 35°32' E 025°23'4 8.7
2018-Jan-21 05:30N 35°32' E 025°29'6 9.0
2018-Jan-21 04:52N 35°32' E 025°36'3 8.9
2018-Jan-21 04:30N 35°31' E 025°40'  

Dump ship's entire track history